createdAt,value
2018-07-24T00:02:19.195Z,23.50
2018-07-24T00:04:46.699Z,23.50
2018-07-24T00:07:14.195Z,23.50
2018-07-24T00:09:42.017Z,23.50
2018-07-24T00:12:09.545Z,23.50
2018-07-24T00:14:37.033Z,23.50
2018-07-24T00:17:04.458Z,23.50
2018-07-24T00:19:31.933Z,23.50
2018-07-24T00:21:59.503Z,23.40
2018-07-24T00:24:26.959Z,23.40
2018-07-24T00:26:54.487Z,23.40
2018-07-24T00:29:21.967Z,23.30
2018-07-24T00:31:49.454Z,23.40
2018-07-24T00:34:16.959Z,23.30
2018-07-24T00:36:44.477Z,23.30
2018-07-24T00:39:11.918Z,23.20
2018-07-24T00:41:39.420Z,23.20
2018-07-24T00:44:06.943Z,23.00
2018-07-24T00:46:34.552Z,23.10
2018-07-24T00:49:02.071Z,23.10
2018-07-24T00:51:29.602Z,23.20
2018-07-24T00:53:57.122Z,23.20
2018-07-24T00:56:24.616Z,23.20
2018-07-24T00:58:52.148Z,23.10
2018-07-24T01:01:19.622Z,23.20
2018-07-24T01:03:47.110Z,23.30
2018-07-24T01:06:14.688Z,23.30
2018-07-24T01:08:42.223Z,23.20
2018-07-24T01:11:09.719Z,23.20
2018-07-24T01:13:37.287Z,23.10
2018-07-24T01:16:04.953Z,23.10
2018-07-24T01:18:32.482Z,23.00
2018-07-24T01:21:00.056Z,23.00
2018-07-24T01:23:27.563Z,23.10
2018-07-24T01:25:55.055Z,23.00
2018-07-24T01:28:22.550Z,23.00
2018-07-24T01:30:50.026Z,23.10
2018-07-24T01:33:17.537Z,23.00
2018-07-24T01:35:45.035Z,23.00
2018-07-24T01:38:12.515Z,22.90
2018-07-24T01:40:40.034Z,22.90
2018-07-24T01:43:07.527Z,23.00
2018-07-24T01:45:35.016Z,23.00
2018-07-24T01:48:02.523Z,23.00
2018-07-24T01:50:30.021Z,23.00
2018-07-24T01:52:57.532Z,22.90
2018-07-24T01:55:25.023Z,22.80
2018-07-24T01:57:52.556Z,22.80
2018-07-24T02:00:20.037Z,22.80
2018-07-24T02:02:47.566Z,22.80
2018-07-24T02:05:15.138Z,22.70
2018-07-24T02:07:42.845Z,22.70
2018-07-24T02:10:10.363Z,22.70
2018-07-24T02:12:37.891Z,22.70
2018-07-24T02:15:06.109Z,22.70
2018-07-24T02:17:33.635Z,22.70
2018-07-24T02:20:01.356Z,22.70
2018-07-24T02:22:28.842Z,22.80
2018-07-24T02:24:56.319Z,22.80
2018-07-24T02:27:23.835Z,22.70
2018-07-24T02:29:51.355Z,22.60
2018-07-24T02:32:18.881Z,22.60
2018-07-24T02:34:46.414Z,22.60
2018-07-24T02:37:13.924Z,22.60
2018-07-24T02:39:41.419Z,22.60
2018-07-24T02:42:08.959Z,22.70
2018-07-24T02:44:36.447Z,22.70
2018-07-24T02:47:03.946Z,22.70
2018-07-24T02:49:31.474Z,22.60
2018-07-24T02:51:58.988Z,22.60
2018-07-24T02:54:26.465Z,22.70
2018-07-24T02:56:53.975Z,22.60
2018-07-24T02:59:21.492Z,22.60
2018-07-24T03:01:49.005Z,22.60
2018-07-24T03:04:16.514Z,22.40
2018-07-24T03:06:44.056Z,22.50
2018-07-24T03:09:11.914Z,22.70
2018-07-24T03:11:39.584Z,22.60
2018-07-24T03:14:07.762Z,22.60
2018-07-24T03:16:35.288Z,22.60
2018-07-24T03:19:02.828Z,22.60
2018-07-24T03:21:30.444Z,22.50
2018-07-24T03:26:25.424Z,22.50
2018-07-24T03:28:52.951Z,22.50
2018-07-24T03:31:20.440Z,22.40
2018-07-24T03:33:48.013Z,22.50
2018-07-24T03:36:15.479Z,22.40
2018-07-24T03:38:42.943Z,22.60
2018-07-24T03:41:10.463Z,22.60
2018-07-24T03:43:37.991Z,22.70
2018-07-24T03:46:05.458Z,22.70
2018-07-24T03:48:32.966Z,22.70
2018-07-24T03:51:00.518Z,22.60
2018-07-24T03:55:55.556Z,22.60
2018-07-24T03:58:23.084Z,22.60
2018-07-24T04:00:50.609Z,22.50
2018-07-24T04:03:18.096Z,22.50
2018-07-24T04:05:45.617Z,22.50
2018-07-24T04:08:13.107Z,22.60
2018-07-24T04:13:08.099Z,22.60
2018-07-24T04:15:35.583Z,22.70
2018-07-24T04:18:03.125Z,22.70
2018-07-24T04:20:30.673Z,22.70
2018-07-24T04:22:58.233Z,22.80
2018-07-24T04:25:25.711Z,22.80
2018-07-24T04:27:53.227Z,23.00
2018-07-24T04:30:20.724Z,23.00
2018-07-24T04:32:48.222Z,23.10
2018-07-24T04:35:15.701Z,23.30
2018-07-24T04:37:43.204Z,23.40
2018-07-24T04:40:10.747Z,23.60
2018-07-24T04:42:38.205Z,23.90
2018-07-24T04:45:05.876Z,24.20
2018-07-24T04:47:33.397Z,24.50
2018-07-24T04:50:00.901Z,24.70
2018-07-24T04:52:28.401Z,24.90
2018-07-24T04:54:55.902Z,25.30
2018-07-24T04:57:23.399Z,25.50
2018-07-24T04:59:50.920Z,25.70
2018-07-24T05:02:18.410Z,26.00
2018-07-24T05:04:45.914Z,26.20
2018-07-24T05:07:13.425Z,26.50
2018-07-24T05:09:41.043Z,26.70
2018-07-24T05:12:08.654Z,26.90
2018-07-24T05:17:03.684Z,27.30
2018-07-24T05:19:31.277Z,27.40
2018-07-24T05:21:58.796Z,27.60
2018-07-24T05:24:26.273Z,27.90
2018-07-24T05:26:53.799Z,28.10
2018-07-24T05:29:21.447Z,28.30
2018-07-24T05:31:48.960Z,28.60
2018-07-24T05:34:16.494Z,28.80
2018-07-24T05:36:43.997Z,29.00
2018-07-24T05:39:12.067Z,29.20
2018-07-24T05:41:39.721Z,29.50
2018-07-24T05:44:07.266Z,29.80
2018-07-24T05:46:34.721Z,30.00
2018-07-24T05:49:02.226Z,30.30
2018-07-24T05:51:29.724Z,30.60
2018-07-24T05:53:57.290Z,30.70
2018-07-24T05:56:24.869Z,30.90
2018-07-24T05:58:52.469Z,30.80
2018-07-24T06:01:19.955Z,30.80
2018-07-24T06:03:47.520Z,31.10
2018-07-24T06:06:15.034Z,31.50
2018-07-24T06:08:42.676Z,31.50
2018-07-24T06:11:10.197Z,31.60
2018-07-24T06:13:37.677Z,31.80
2018-07-24T06:16:05.254Z,32.00
2018-07-24T06:18:32.772Z,31.80
2018-07-24T06:21:00.327Z,31.80
2018-07-24T06:23:27.852Z,32.00
2018-07-24T06:25:55.385Z,32.40
2018-07-24T06:28:22.878Z,32.60
2018-07-24T06:30:50.423Z,32.80
2018-07-24T06:33:18.133Z,33.20
2018-07-24T06:35:45.632Z,33.30
2018-07-24T06:38:13.170Z,33.50
2018-07-24T06:40:40.668Z,33.70
2018-07-24T06:43:08.153Z,33.70
2018-07-24T06:45:36.007Z,33.80
2018-07-24T06:48:03.633Z,34.20
2018-07-24T06:50:31.144Z,34.60
2018-07-24T06:52:58.605Z,34.80
2018-07-24T06:55:26.092Z,34.90
2018-07-24T06:57:53.929Z,35.30
2018-07-24T07:00:21.413Z,35.50
2018-07-24T07:05:16.545Z,36.10
2018-07-24T07:07:44.187Z,36.30
2018-07-24T07:10:11.645Z,36.40
2018-07-24T07:12:39.093Z,36.40
2018-07-24T07:15:07.148Z,36.70
2018-07-24T07:17:34.844Z,36.90
2018-07-24T07:20:02.403Z,37.00
2018-07-24T07:22:29.942Z,37.10
2018-07-24T07:24:57.575Z,37.30
2018-07-24T07:27:25.073Z,36.70
2018-07-24T07:29:52.576Z,35.80
2018-07-24T07:32:20.970Z,35.20
2018-07-24T07:34:48.548Z,34.40
2018-07-24T07:37:16.019Z,33.90
2018-07-24T07:39:43.623Z,33.60
2018-07-24T07:42:11.133Z,33.20
2018-07-24T07:44:38.637Z,32.90
2018-07-24T07:47:06.114Z,32.90
2018-07-24T07:49:33.615Z,33.10
2018-07-24T07:52:01.189Z,33.20
2018-07-24T07:54:28.707Z,33.40
2018-07-24T07:56:56.217Z,33.90
2018-07-24T07:59:23.698Z,34.00
2018-07-24T08:04:18.743Z,33.70
2018-07-24T08:06:46.211Z,33.70
2018-07-24T08:09:13.747Z,34.60
2018-07-24T08:11:41.361Z,35.20
2018-07-24T08:14:08.947Z,36.00
2018-07-24T08:16:36.621Z,36.60
2018-07-24T08:19:04.505Z,36.70
2018-07-24T08:21:32.022Z,36.60
2018-07-24T08:23:59.552Z,36.10
2018-07-24T08:26:27.064Z,36.60
2018-07-24T08:28:54.570Z,36.90
2018-07-24T08:31:22.079Z,37.30
2018-07-24T08:33:49.607Z,37.40
2018-07-24T08:36:17.412Z,38.00
2018-07-24T08:38:44.988Z,38.50
2018-07-24T08:41:12.569Z,39.00
2018-07-24T08:43:40.111Z,39.50
2018-07-24T08:46:07.976Z,39.60
2018-07-24T08:48:35.975Z,39.40
2018-07-24T08:51:03.891Z,39.40
2018-07-24T08:53:32.039Z,39.50
2018-07-24T08:55:59.383Z,38.90
2018-07-24T08:58:27.479Z,38.70
2018-07-24T09:00:55.024Z,38.90
2018-07-24T09:03:22.560Z,39.00
2018-07-24T09:05:50.096Z,38.70
2018-07-24T09:08:18.110Z,38.60
2018-07-24T09:10:45.641Z,38.70
2018-07-24T09:13:13.145Z,38.60
2018-07-24T09:15:40.669Z,38.60
2018-07-24T09:18:08.253Z,38.50
2018-07-24T09:20:35.886Z,38.60
2018-07-24T09:23:03.395Z,38.40
2018-07-24T09:25:30.960Z,38.00
2018-07-24T09:27:58.572Z,37.80
2018-07-24T09:32:53.551Z,37.50
2018-07-24T09:35:21.059Z,37.10
2018-07-24T09:37:48.550Z,36.70
2018-07-24T09:40:16.071Z,35.90
2018-07-24T09:42:43.592Z,35.00
2018-07-24T09:45:11.107Z,34.30
2018-07-24T09:47:38.620Z,33.60
2018-07-24T09:50:06.131Z,33.20
2018-07-24T09:52:33.632Z,32.80
2018-07-24T09:55:01.136Z,32.60
2018-07-24T09:57:28.644Z,32.50
2018-07-24T09:59:56.240Z,32.30
2018-07-24T10:02:23.717Z,32.20
2018-07-24T10:04:51.262Z,32.10
2018-07-24T10:07:18.783Z,32.00
2018-07-24T10:09:46.292Z,32.00
2018-07-24T10:12:13.922Z,31.90
2018-07-24T10:14:41.435Z,31.90
2018-07-24T10:17:08.973Z,31.80
2018-07-24T10:19:36.492Z,31.80
2018-07-24T10:22:04.041Z,31.80
2018-07-24T10:24:31.719Z,31.70
2018-07-24T10:26:59.319Z,31.50
2018-07-24T10:29:27.176Z,31.40
2018-07-24T10:34:22.202Z,31.50
2018-07-24T10:36:49.697Z,31.50
2018-07-24T10:39:17.187Z,31.50
2018-07-24T10:41:44.672Z,31.40
2018-07-24T10:44:12.168Z,31.50
2018-07-24T10:46:39.674Z,31.40
2018-07-24T10:49:08.126Z,31.40
2018-07-24T10:51:35.692Z,31.40
2018-07-24T10:54:03.186Z,31.40
2018-07-24T10:56:30.994Z,31.30
2018-07-24T10:58:58.532Z,31.40
2018-07-24T11:01:26.139Z,31.40
2018-07-24T11:03:54.379Z,31.40
2018-07-24T11:06:21.876Z,31.40
2018-07-24T11:08:49.508Z,31.40
2018-07-24T11:11:17.084Z,31.40
2018-07-24T11:13:44.607Z,31.40
2018-07-24T11:16:12.168Z,31.40
2018-07-24T11:18:39.760Z,31.30
2018-07-24T11:21:07.132Z,31.20
2018-07-24T11:23:34.657Z,31.20
2018-07-24T11:28:29.754Z,31.10
2018-07-24T11:30:57.221Z,31.10
2018-07-24T11:33:24.842Z,31.00
2018-07-24T11:35:52.465Z,31.10
2018-07-24T11:38:19.904Z,31.10
2018-07-24T11:40:47.392Z,31.00
2018-07-24T11:43:14.869Z,31.10
2018-07-24T11:45:42.412Z,31.00
2018-07-24T11:48:09.891Z,31.00
2018-07-24T11:50:37.464Z,30.90
2018-07-24T11:53:04.991Z,31.00
2018-07-24T11:55:32.497Z,31.00
2018-07-24T11:58:00.060Z,31.00
2018-07-24T12:00:27.568Z,31.00
2018-07-24T12:02:55.250Z,31.00
2018-07-24T12:05:22.766Z,31.00
2018-07-24T12:07:50.274Z,30.90
2018-07-24T12:10:17.739Z,31.00
2018-07-24T12:12:45.264Z,31.00
2018-07-24T12:15:12.846Z,31.00
2018-07-24T12:17:40.377Z,31.00
2018-07-24T12:20:07.859Z,31.00
2018-07-24T12:25:02.855Z,30.90
2018-07-24T12:27:30.317Z,31.00
2018-07-24T12:29:57.869Z,31.00
2018-07-24T12:32:25.377Z,31.00
2018-07-24T12:34:52.882Z,31.10
2018-07-24T12:37:20.344Z,31.10
2018-07-24T12:39:47.842Z,31.10
2018-07-24T12:42:15.352Z,31.10
2018-07-24T12:44:42.865Z,31.10
2018-07-24T12:47:10.548Z,31.10
2018-07-24T12:49:38.088Z,31.10
2018-07-24T12:52:05.691Z,31.00
2018-07-24T12:54:33.171Z,31.10
2018-07-24T12:57:00.835Z,31.10
2018-07-24T12:59:28.327Z,31.10
2018-07-24T13:01:55.820Z,31.10
2018-07-24T13:04:23.315Z,31.10
2018-07-24T13:06:50.820Z,31.10
2018-07-24T13:09:18.327Z,31.00
2018-07-24T13:11:45.873Z,31.00
2018-07-24T13:14:13.384Z,31.00
2018-07-24T13:16:40.922Z,31.10
2018-07-24T13:19:08.428Z,31.10
2018-07-24T13:21:35.929Z,31.10
2018-07-24T13:24:03.423Z,31.00
2018-07-24T13:26:30.918Z,31.00
2018-07-24T13:28:58.380Z,31.10
2018-07-24T13:31:25.861Z,31.00
2018-07-24T13:33:53.435Z,31.00
2018-07-24T13:36:20.991Z,31.00
2018-07-24T13:38:48.613Z,31.10
2018-07-24T13:41:16.083Z,31.10
2018-07-24T13:46:11.055Z,31.00
2018-07-24T13:48:38.529Z,31.00
2018-07-24T13:51:06.065Z,31.00
2018-07-24T13:53:33.593Z,31.10
2018-07-24T13:56:01.185Z,31.10
2018-07-24T13:58:28.693Z,31.10
2018-07-24T14:00:56.185Z,31.00
2018-07-24T14:03:23.723Z,31.10
2018-07-24T14:05:51.336Z,31.10
2018-07-24T14:08:18.882Z,31.20
2018-07-24T14:10:46.356Z,31.10
2018-07-24T14:13:13.840Z,31.10
2018-07-24T14:15:41.364Z,31.00
2018-07-24T14:18:08.845Z,30.90
2018-07-24T14:20:36.299Z,30.90
2018-07-24T14:23:03.841Z,30.80
2018-07-24T14:25:31.435Z,30.90
2018-07-24T14:27:58.940Z,30.90
2018-07-24T14:30:26.515Z,30.90
2018-07-24T14:32:54.399Z,30.80
2018-07-24T14:35:21.928Z,30.80
2018-07-24T14:37:49.680Z,30.90
2018-07-24T14:40:17.174Z,30.90
2018-07-24T14:42:44.668Z,30.80
2018-07-24T14:45:12.207Z,30.70
2018-07-24T14:47:39.725Z,30.60
2018-07-24T14:50:07.187Z,30.60
2018-07-24T14:52:34.680Z,30.70
2018-07-24T14:55:02.136Z,30.70
2018-07-24T14:57:29.780Z,30.70
2018-07-24T14:59:57.312Z,30.40
2018-07-24T15:02:24.797Z,30.20
2018-07-24T15:04:52.277Z,30.10
2018-07-24T15:07:19.865Z,30.10
2018-07-24T15:09:47.526Z,30.30
2018-07-24T15:12:15.104Z,30.40
2018-07-24T15:14:42.619Z,30.40
2018-07-24T15:17:10.101Z,30.40
2018-07-24T15:19:37.600Z,30.60
2018-07-24T15:22:05.138Z,30.50
2018-07-24T15:26:57.971Z,30.60
2018-07-24T15:29:25.448Z,30.40
2018-07-24T15:31:52.949Z,30.20
2018-07-24T15:34:20.499Z,30.20
2018-07-24T15:36:47.932Z,30.30
2018-07-24T15:39:15.459Z,30.40
2018-07-24T15:41:43.621Z,30.40
2018-07-24T15:44:11.105Z,30.40
2018-07-24T15:46:38.629Z,30.20
2018-07-24T15:49:06.168Z,30.20
2018-07-24T15:51:33.663Z,30.10
2018-07-24T15:54:01.172Z,30.10
2018-07-24T15:56:28.690Z,30.20
2018-07-24T15:58:56.588Z,30.20
2018-07-24T16:01:24.076Z,30.20
2018-07-24T16:03:51.839Z,30.30
2018-07-24T16:06:19.363Z,30.30
2018-07-24T16:08:46.895Z,30.20
2018-07-24T16:11:14.434Z,30.30
2018-07-24T16:16:10.386Z,29.90
2018-07-24T16:18:38.009Z,30.00
2018-07-24T16:21:06.022Z,30.00
2018-07-24T16:23:33.698Z,30.10
2018-07-24T16:26:01.326Z,30.00
2018-07-24T16:28:28.924Z,30.20
2018-07-24T16:30:56.424Z,30.10
2018-07-24T16:33:23.932Z,30.00
2018-07-24T16:35:51.435Z,30.10
2018-07-24T16:38:18.909Z,30.40
2018-07-24T16:40:46.392Z,29.80
2018-07-24T16:43:13.875Z,30.10
2018-07-24T16:45:41.391Z,30.40
2018-07-24T16:48:09.009Z,30.10
2018-07-24T16:50:36.522Z,29.90
2018-07-24T16:53:04.018Z,30.10
2018-07-24T16:55:31.559Z,30.00
2018-07-24T16:57:59.096Z,30.00
2018-07-24T17:00:26.753Z,30.00
2018-07-24T17:02:54.896Z,30.30
2018-07-24T17:05:22.460Z,30.40
2018-07-24T17:07:49.971Z,30.60
2018-07-24T17:10:17.526Z,30.30
2018-07-24T17:12:45.036Z,30.40
2018-07-24T17:15:12.535Z,30.30
2018-07-24T17:17:40.057Z,30.10
2018-07-24T17:20:08.536Z,29.80
2018-07-24T17:22:36.303Z,29.60
2018-07-24T17:25:04.445Z,29.60
2018-07-24T17:27:32.175Z,29.60
2018-07-24T17:30:00.074Z,29.70
2018-07-24T17:32:27.717Z,29.40
2018-07-24T17:34:55.287Z,29.40
2018-07-24T17:37:23.159Z,29.30
2018-07-24T17:39:50.809Z,29.30
2018-07-24T17:42:18.297Z,29.30
2018-07-24T17:44:47.004Z,29.30
2018-07-24T17:47:14.827Z,29.20
2018-07-24T17:49:42.278Z,29.40
2018-07-24T17:52:10.073Z,29.60
2018-07-24T17:54:37.996Z,29.40
2018-07-24T17:57:05.645Z,29.50
2018-07-24T17:59:33.353Z,29.50
2018-07-24T18:02:01.322Z,29.60
2018-07-24T18:04:28.954Z,29.60
2018-07-24T18:06:56.766Z,29.70
2018-07-24T18:09:24.523Z,29.60
2018-07-24T18:11:52.510Z,29.60
2018-07-24T18:14:20.198Z,29.50
2018-07-24T18:16:48.144Z,29.50
2018-07-24T18:19:16.422Z,29.60
2018-07-24T18:21:44.285Z,29.60
2018-07-24T18:24:12.010Z,29.60
2018-07-24T18:26:39.775Z,29.60
2018-07-24T18:29:07.595Z,29.50
2018-07-24T18:31:35.633Z,29.40
2018-07-24T18:34:03.336Z,29.50
2018-07-24T18:36:31.064Z,29.40
2018-07-24T18:38:58.890Z,29.30
2018-07-24T18:41:26.683Z,29.20
2018-07-24T18:43:54.323Z,29.40
2018-07-24T18:46:21.981Z,29.30
2018-07-24T18:48:49.799Z,29.30
2018-07-24T18:51:17.432Z,29.60
2018-07-24T18:53:45.027Z,29.60
2018-07-24T18:58:40.073Z,29.10
2018-07-24T19:01:07.779Z,28.80
2018-07-24T19:03:35.228Z,28.60
2018-07-24T19:06:02.780Z,28.50
2018-07-24T19:08:30.333Z,28.30
2018-07-24T19:10:57.835Z,28.30
2018-07-24T19:13:25.463Z,28.50
2018-07-24T19:15:52.948Z,28.50
2018-07-24T19:18:20.448Z,28.20
2018-07-24T19:20:47.931Z,27.70
2018-07-24T19:23:15.397Z,27.50
2018-07-24T19:25:42.863Z,27.40
2018-07-24T19:28:10.439Z,27.60
2018-07-24T19:30:37.935Z,27.40
2018-07-24T19:33:05.738Z,27.50
2018-07-24T19:35:33.258Z,27.40
2018-07-24T19:40:28.434Z,27.20
2018-07-24T19:47:50.987Z,27.20
2018-07-24T19:50:18.524Z,26.90
2018-07-24T19:52:46.028Z,26.80
2018-07-24T19:55:13.550Z,26.60
2018-07-24T19:57:41.085Z,26.80
2018-07-24T20:00:10.023Z,26.70
2018-07-24T20:02:37.594Z,26.50
2018-07-24T20:07:32.673Z,26.20
2018-07-24T20:10:00.256Z,26.60
2018-07-24T20:12:27.830Z,26.60
2018-07-24T20:17:22.900Z,26.30
2018-07-24T20:19:50.413Z,26.40
2018-07-24T20:22:17.987Z,26.40
2018-07-24T20:24:45.579Z,26.50
2018-07-24T20:27:13.998Z,26.20
2018-07-24T20:29:42.186Z,26.00
2018-07-24T20:32:09.742Z,25.90
2018-07-24T20:34:37.194Z,26.10
2018-07-24T20:37:04.731Z,25.90
2018-07-24T20:39:32.240Z,25.90
2018-07-24T20:41:59.731Z,26.00
2018-07-24T20:44:27.305Z,25.90
2018-07-24T20:46:54.867Z,25.90
2018-07-24T20:49:22.452Z,26.00
2018-07-24T20:51:49.956Z,25.90
2018-07-24T20:54:17.451Z,25.80
2018-07-24T20:56:44.965Z,25.90
2018-07-24T20:59:12.498Z,25.70
2018-07-24T21:01:39.988Z,25.50
2018-07-24T21:04:07.519Z,25.60
2018-07-24T21:06:35.107Z,25.50
2018-07-24T21:09:17.568Z,25.40
2018-07-24T21:11:45.064Z,25.30
2018-07-24T21:16:40.008Z,25.00
2018-07-24T21:19:07.784Z,25.30
2018-07-24T21:21:35.594Z,25.50
2018-07-24T21:24:03.092Z,25.60
2018-07-24T21:26:31.124Z,25.70
2018-07-24T21:28:58.576Z,25.60
2018-07-24T21:31:26.112Z,25.30
2018-07-24T21:33:53.673Z,25.10
2018-07-24T21:36:21.219Z,25.10
2018-07-24T21:38:48.835Z,25.10
2018-07-24T21:41:17.110Z,25.00
2018-07-24T21:43:44.780Z,24.90
2018-07-24T21:46:12.276Z,25.20
2018-07-24T21:51:08.046Z,24.80
2018-07-24T21:53:35.651Z,24.80
2018-07-24T21:58:30.647Z,24.80
2018-07-24T22:01:04.185Z,24.80
2018-07-24T22:03:31.748Z,24.90
2018-07-24T22:05:59.249Z,24.90
2018-07-24T22:08:26.748Z,24.60
2018-07-24T22:10:54.252Z,24.90
2018-07-24T22:13:21.732Z,25.10
2018-07-24T22:15:49.225Z,25.20
2018-07-24T22:18:16.826Z,25.20
2018-07-24T22:20:44.439Z,25.10
2018-07-24T22:23:11.941Z,24.80
2018-07-24T22:25:39.419Z,25.00
2018-07-24T22:28:07.034Z,25.00
2018-07-24T22:30:34.513Z,24.70
2018-07-24T22:33:01.988Z,24.30
2018-07-24T22:35:29.443Z,23.90
2018-07-24T22:37:56.952Z,23.90
2018-07-24T22:40:24.438Z,23.90
2018-07-24T22:42:51.951Z,23.90
2018-07-24T22:45:19.578Z,24.10
2018-07-24T22:47:47.036Z,24.30
2018-07-24T22:50:14.561Z,24.60
2018-07-24T22:52:42.059Z,24.60
2018-07-24T22:55:09.523Z,24.80
2018-07-24T22:57:37.036Z,24.20
2018-07-24T23:00:04.553Z,24.30
2018-07-24T23:02:32.219Z,24.40
2018-07-24T23:04:59.757Z,24.40
2018-07-24T23:07:27.295Z,24.20
2018-07-24T23:09:54.874Z,24.40
2018-07-24T23:12:22.335Z,24.10
2018-07-24T23:14:49.813Z,24.40
2018-07-24T23:17:17.328Z,24.30
2018-07-24T23:19:44.838Z,24.40
2018-07-24T23:22:12.320Z,24.80
2018-07-24T23:24:39.794Z,24.40
2018-07-24T23:27:07.257Z,24.20
2018-07-24T23:29:34.728Z,24.00
2018-07-24T23:32:02.231Z,24.10
2018-07-24T23:34:29.684Z,23.90
2018-07-24T23:36:57.188Z,24.20
2018-07-24T23:41:52.217Z,24.00
2018-07-24T23:44:19.736Z,23.90
2018-07-24T23:49:14.713Z,24.50
2018-07-24T23:51:42.216Z,24.50
2018-07-24T23:54:09.684Z,24.60
2018-07-24T23:56:37.191Z,24.10
2018-07-24T23:59:04.680Z,24.10
